sensor_id;sensor_type;location;lat;lon;timestamp;temperature;humidity
16966;DHT22;8599;47.852;12.070;2023-04-12T00:02:21;5.50;99.90
16966;DHT22;8599;47.852;12.070;2023-04-12T00:04:48;5.40;99.90
16966;DHT22;8599;47.852;12.070;2023-04-12T00:07:20;5.50;99.90
16966;DHT22;8599;47.852;12.070;2023-04-12T00:09:47;5.50;99.90
16966;DHT22;8599;47.852;12.070;2023-04-12T00:12:14;5.50;99.90
16966;DHT22;8599;47.852;12.070;2023-04-12T00:14:43;5.50;99.90
16966;DHT22;8599;47.852;12.070;2023-04-12T00:17:10;5.60;99.90
16966;DHT22;8599;47.852;12.070;2023-04-12T00:19:37;5.60;99.90
16966;DHT22;8599;47.852;12.070;2023-04-12T00:22:06;5.60;99.90
16966;DHT22;8599;47.852;12.070;2023-04-12T00:24:33;5.70;99.90
16966;DHT22;8599;47.852;12.070;2023-04-12T00:27:00;5.70;99.90
16966;DHT22;8599;47.852;12.070;2023-04-12T00:29:27;5.70;99.90
16966;DHT22;8599;47.852;12.070;2023-04-12T00:31:55;5.80;99.90
16966;DHT22;8599;47.852;12.070;2023-04-12T00:34:22;5.80;99.90
16966;DHT22;8599;47.852;12.070;2023-04-12T00:36:49;5.80;99.90
16966;DHT22;8599;47.852;12.070;2023-04-12T00:39:16;5.90;99.90
16966;DHT22;8599;47.852;12.070;2023-04-12T00:41:42;5.90;99.90
16966;DHT22;8599;47.852;12.070;2023-04-12T00:44:09;5.90;99.90
16966;DHT22;8599;47.852;12.070;2023-04-12T00:46:36;6.00;99.90
16966;DHT22;8599;47.852;12.070;2023-04-12T00:49:05;6.00;99.90
16966;DHT22;8599;47.852;12.070;2023-04-12T00:51:32;6.10;99.90
16966;DHT22;8599;47.852;12.070;2023-04-12T00:53:59;6.10;99.90
16966;DHT22;8599;47.852;12.070;2023-04-12T00:56:27;6.10;99.90
16966;DHT22;8599;47.852;12.070;2023-04-12T00:58:55;6.00;99.90
16966;DHT22;8599;47.852;12.070;2023-04-12T01:01:22;6.10;99.90
16966;DHT22;8599;47.852;12.070;2023-04-12T01:03:49;6.00;99.90
16966;DHT22;8599;47.852;12.070;2023-04-12T01:06:25;6.00;99.90
16966;DHT22;8599;47.852;12.070;2023-04-12T01:09:05;6.00;99.90
16966;DHT22;8599;47.852;12.070;2023-04-12T01:11:37;6.00;99.90
16966;DHT22;8599;47.852;12.070;2023-04-12T01:14:08;6.00;99.90
16966;DHT22;8599;47.852;12.070;2023-04-12T01:16:40;6.00;99.90
16966;DHT22;8599;47.852;12.070;2023-04-12T01:19:18;6.00;99.90
16966;DHT22;8599;47.852;12.070;2023-04-12T01:22:01;6.10;99.90
16966;DHT22;8599;47.852;12.070;2023-04-12T01:24:36;6.10;99.90
16966;DHT22;8599;47.852;12.070;2023-04-12T01:27:15;6.10;99.90
16966;DHT22;8599;47.852;12.070;2023-04-12T01:29:44;6.10;99.90
16966;DHT22;8599;47.852;12.070;2023-04-12T01:32:14;6.10;99.90
16966;DHT22;8599;47.852;12.070;2023-04-12T01:34:43;6.00;99.90
16966;DHT22;8599;47.852;12.070;2023-04-12T01:37:11;6.10;99.90
16966;DHT22;8599;47.852;12.070;2023-04-12T01:39:38;6.00;99.90
16966;DHT22;8599;47.852;12.070;2023-04-12T01:42:06;6.10;99.90
16966;DHT22;8599;47.852;12.070;2023-04-12T01:44:34;6.10;99.90
16966;DHT22;8599;47.852;12.070;2023-04-12T01:47:01;6.00;99.90
16966;DHT22;8599;47.852;12.070;2023-04-12T01:49:34;6.10;99.90
16966;DHT22;8599;47.852;12.070;2023-04-12T01:52:07;6.10;99.90
16966;DHT22;8599;47.852;12.070;2023-04-12T01:54:37;6.10;99.90
16966;DHT22;8599;47.852;12.070;2023-04-12T01:57:06;6.10;99.90
16966;DHT22;8599;47.852;12.070;2023-04-12T01:59:38;6.10;99.90
16966;DHT22;8599;47.852;12.070;2023-04-12T02:02:05;6.10;99.90
16966;DHT22;8599;47.852;12.070;2023-04-12T02:04:33;6.10;99.90
16966;DHT22;8599;47.852;12.070;2023-04-12T02:07:01;6.10;99.90
16966;DHT22;8599;47.852;12.070;2023-04-12T02:09:28;6.10;99.90
16966;DHT22;8599;47.852;12.070;2023-04-12T02:11:55;6.10;99.90
16966;DHT22;8599;47.852;12.070;2023-04-12T02:14:22;6.20;99.90
16966;DHT22;8599;47.852;12.070;2023-04-12T02:16:50;6.20;99.90
16966;DHT22;8599;47.852;12.070;2023-04-12T02:19:19;6.10;99.90
16966;DHT22;8599;47.852;12.070;2023-04-12T02:21:46;6.10;99.90
16966;DHT22;8599;47.852;12.070;2023-04-12T02:24:14;6.10;99.90
16966;DHT22;8599;47.852;12.070;2023-04-12T02:26:41;6.10;99.90
16966;DHT22;8599;47.852;12.070;2023-04-12T02:29:09;6.00;99.90
16966;DHT22;8599;47.852;12.070;2023-04-12T02:31:36;6.00;99.90
16966;DHT22;8599;47.852;12.070;2023-04-12T02:34:04;6.00;99.90
16966;DHT22;8599;47.852;12.070;2023-04-12T02:36:32;6.00;99.90
16966;DHT22;8599;47.852;12.070;2023-04-12T02:38:59;5.80;99.90
16966;DHT22;8599;47.852;12.070;2023-04-12T02:41:26;5.80;99.90
16966;DHT22;8599;47.852;12.070;2023-04-12T02:43:53;5.80;99.90
16966;DHT22;8599;47.852;12.070;2023-04-12T02:46:22;5.90;99.90
16966;DHT22;8599;47.852;12.070;2023-04-12T02:48:49;5.90;99.90
16966;DHT22;8599;47.852;12.070;2023-04-12T02:51:18;6.00;99.90
16966;DHT22;8599;47.852;12.070;2023-04-12T02:53:44;6.00;99.90
16966;DHT22;8599;47.852;12.070;2023-04-12T02:56:11;6.00;99.90
16966;DHT22;8599;47.852;12.070;2023-04-12T02:58:38;6.00;99.90
16966;DHT22;8599;47.852;12.070;2023-04-12T03:01:05;6.00;99.90
16966;DHT22;8599;47.852;12.070;2023-04-12T03:03:33;5.90;99.90
16966;DHT22;8599;47.852;12.070;2023-04-12T03:06:01;5.90;99.90
16966;DHT22;8599;47.852;12.070;2023-04-12T03:08:29;5.90;99.90
16966;DHT22;8599;47.852;12.070;2023-04-12T03:10:56;5.90;99.90
16966;DHT22;8599;47.852;12.070;2023-04-12T03:13:23;5.80;99.90
16966;DHT22;8599;47.852;12.070;2023-04-12T03:15:57;5.70;99.90
16966;DHT22;8599;47.852;12.070;2023-04-12T03:18:24;5.60;99.90
16966;DHT22;8599;47.852;12.070;2023-04-12T03:20:51;5.60;99.90
16966;DHT22;8599;47.852;12.070;2023-04-12T03:23:18;5.60;99.90
16966;DHT22;8599;47.852;12.070;2023-04-12T03:25:47;5.60;99.90
16966;DHT22;8599;47.852;12.070;2023-04-12T03:28:13;5.60;99.90
16966;DHT22;8599;47.852;12.070;2023-04-12T03:30:40;5.60;99.90
16966;DHT22;8599;47.852;12.070;2023-04-12T03:33:07;5.70;99.90
16966;DHT22;8599;47.852;12.070;2023-04-12T03:35:34;5.70;99.90
16966;DHT22;8599;47.852;12.070;2023-04-12T03:38:01;5.80;99.90
16966;DHT22;8599;47.852;12.070;2023-04-12T03:40:28;5.80;99.90
16966;DHT22;8599;47.852;12.070;2023-04-12T03:42:56;5.80;99.90
16966;DHT22;8599;47.852;12.070;2023-04-12T03:45:23;5.90;99.90
16966;DHT22;8599;47.852;12.070;2023-04-12T03:47:50;5.90;99.90
16966;DHT22;8599;47.852;12.070;2023-04-12T03:50:17;5.90;99.90
16966;DHT22;8599;47.852;12.070;2023-04-12T03:52:44;5.90;99.90
16966;DHT22;8599;47.852;12.070;2023-04-12T03:55:11;5.90;99.90
16966;DHT22;8599;47.852;12.070;2023-04-12T03:57:38;5.90;99.90
16966;DHT22;8599;47.852;12.070;2023-04-12T04:00:09;5.90;99.90
16966;DHT22;8599;47.852;12.070;2023-04-12T04:02:36;5.90;99.90
16966;DHT22;8599;47.852;12.070;2023-04-12T04:05:03;5.80;99.90
16966;DHT22;8599;47.852;12.070;2023-04-12T04:07:30;5.80;99.90
16966;DHT22;8599;47.852;12.070;2023-04-12T04:09:57;5.70;99.90
16966;DHT22;8599;47.852;12.070;2023-04-12T04:12:24;5.70;99.90
16966;DHT22;8599;47.852;12.070;2023-04-12T04:14:52;5.60;99.90
16966;DHT22;8599;47.852;12.070;2023-04-12T04:17:20;5.60;99.90
16966;DHT22;8599;47.852;12.070;2023-04-12T04:19:47;5.60;99.90
16966;DHT22;8599;47.852;12.070;2023-04-12T04:22:14;5.60;99.90
16966;DHT22;8599;47.852;12.070;2023-04-12T04:24:42;5.60;99.90
16966;DHT22;8599;47.852;12.070;2023-04-12T04:27:09;5.60;99.90
16966;DHT22;8599;47.852;12.070;2023-04-12T04:29:35;5.60;99.90
16966;DHT22;8599;47.852;12.070;2023-04-12T04:32:08;5.70;99.90
16966;DHT22;8599;47.852;12.070;2023-04-12T04:34:36;5.70;99.90
16966;DHT22;8599;47.852;12.070;2023-04-12T04:37:04;5.70;99.90
16966;DHT22;8599;47.852;12.070;2023-04-12T04:39:31;5.80;99.90
16966;DHT22;8599;47.852;12.070;2023-04-12T04:41:58;5.80;99.90
16966;DHT22;8599;47.852;12.070;2023-04-12T04:44:25;5.70;99.90
16966;DHT22;8599;47.852;12.070;2023-04-12T04:46:52;5.80;99.90
16966;DHT22;8599;47.852;12.070;2023-04-12T04:49:18;5.80;99.90
16966;DHT22;8599;47.852;12.070;2023-04-12T04:51:47;5.80;99.90
16966;DHT22;8599;47.852;12.070;2023-04-12T04:54:14;5.80;99.90
16966;DHT22;8599;47.852;12.070;2023-04-12T04:56:41;5.90;99.90
16966;DHT22;8599;47.852;12.070;2023-04-12T04:59:08;5.90;99.90
16966;DHT22;8599;47.852;12.070;2023-04-12T05:01:35;5.90;99.90
16966;DHT22;8599;47.852;12.070;2023-04-12T05:04:02;5.90;99.90
16966;DHT22;8599;47.852;12.070;2023-04-12T05:06:28;6.00;99.90
16966;DHT22;8599;47.852;12.070;2023-04-12T05:08:57;6.00;99.90
16966;DHT22;8599;47.852;12.070;2023-04-12T05:11:26;5.90;99.90
16966;DHT22;8599;47.852;12.070;2023-04-12T05:13:52;5.90;99.90
16966;DHT22;8599;47.852;12.070;2023-04-12T05:16:19;6.00;99.90
16966;DHT22;8599;47.852;12.070;2023-04-12T05:18:46;6.00;99.90
16966;DHT22;8599;47.852;12.070;2023-04-12T05:21:13;6.00;99.90
16966;DHT22;8599;47.852;12.070;2023-04-12T05:23:42;6.00;99.90
16966;DHT22;8599;47.852;12.070;2023-04-12T05:26:10;6.10;99.90
16966;DHT22;8599;47.852;12.070;2023-04-12T05:28:37;6.00;99.90
16966;DHT22;8599;47.852;12.070;2023-04-12T05:31:04;6.10;99.90
16966;DHT22;8599;47.852;12.070;2023-04-12T05:33:31;6.10;99.90
16966;DHT22;8599;47.852;12.070;2023-04-12T05:35:59;6.10;99.90
16966;DHT22;8599;47.852;12.070;2023-04-12T05:38:26;6.10;99.90
16966;DHT22;8599;47.852;12.070;2023-04-12T05:40:53;6.10;99.90
16966;DHT22;8599;47.852;12.070;2023-04-12T05:43:21;6.10;99.90
16966;DHT22;8599;47.852;12.070;2023-04-12T05:45:49;6.00;99.90
16966;DHT22;8599;47.852;12.070;2023-04-12T05:48:16;5.90;99.90
16966;DHT22;8599;47.852;12.070;2023-04-12T05:50:49;5.90;99.90
16966;DHT22;8599;47.852;12.070;2023-04-12T05:53:16;5.90;99.90
16966;DHT22;8599;47.852;12.070;2023-04-12T05:55:43;6.00;99.90
16966;DHT22;8599;47.852;12.070;2023-04-12T05:58:10;6.00;99.90
16966;DHT22;8599;47.852;12.070;2023-04-12T06:00:39;5.90;99.90
16966;DHT22;8599;47.852;12.070;2023-04-12T06:03:07;6.00;99.90
16966;DHT22;8599;47.852;12.070;2023-04-12T06:05:34;6.00;99.90
16966;DHT22;8599;47.852;12.070;2023-04-12T06:08:02;6.10;99.90
16966;DHT22;8599;47.852;12.070;2023-04-12T06:10:30;6.10;99.90
16966;DHT22;8599;47.852;12.070;2023-04-12T06:12:57;6.20;99.90
16966;DHT22;8599;47.852;12.070;2023-04-12T06:15:24;6.20;99.90
16966;DHT22;8599;47.852;12.070;2023-04-12T06:17:52;6.30;99.90
16966;DHT22;8599;47.852;12.070;2023-04-12T06:20:19;6.30;99.90
16966;DHT22;8599;47.852;12.070;2023-04-12T06:22:45;6.30;99.90
16966;DHT22;8599;47.852;12.070;2023-04-12T06:25:12;6.40;99.90
16966;DHT22;8599;47.852;12.070;2023-04-12T06:27:40;6.40;99.90
16966;DHT22;8599;47.852;12.070;2023-04-12T06:30:08;6.40;99.90
16966;DHT22;8599;47.852;12.070;2023-04-12T06:32:35;6.50;99.90
16966;DHT22;8599;47.852;12.070;2023-04-12T06:35:04;6.50;99.90
16966;DHT22;8599;47.852;12.070;2023-04-12T06:37:31;6.50;99.90
16966;DHT22;8599;47.852;12.070;2023-04-12T06:39:58;6.60;99.90
16966;DHT22;8599;47.852;12.070;2023-04-12T06:42:25;6.60;99.90
16966;DHT22;8599;47.852;12.070;2023-04-12T06:47:28;6.60;99.90
16966;DHT22;8599;47.852;12.070;2023-04-12T06:49:55;6.70;99.90
16966;DHT22;8599;47.852;12.070;2023-04-12T06:52:24;6.70;99.90
16966;DHT22;8599;47.852;12.070;2023-04-12T06:54:51;6.70;99.90
16966;DHT22;8599;47.852;12.070;2023-04-12T06:57:18;6.80;99.90
16966;DHT22;8599;47.852;12.070;2023-04-12T06:59:45;6.80;99.90
16966;DHT22;8599;47.852;12.070;2023-04-12T07:02:13;6.90;99.90
16966;DHT22;8599;47.852;12.070;2023-04-12T07:04:39;7.00;99.90
16966;DHT22;8599;47.852;12.070;2023-04-12T07:07:06;7.10;99.90
16966;DHT22;8599;47.852;12.070;2023-04-12T07:09:34;7.10;99.90
16966;DHT22;8599;47.852;12.070;2023-04-12T07:12:01;7.10;99.90
16966;DHT22;8599;47.852;12.070;2023-04-12T07:14:28;7.20;99.90
16966;DHT22;8599;47.852;12.070;2023-04-12T07:16:55;7.30;99.90
16966;DHT22;8599;47.852;12.070;2023-04-12T07:19:21;7.40;99.90
16966;DHT22;8599;47.852;12.070;2023-04-12T07:21:48;7.40;99.90
16966;DHT22;8599;47.852;12.070;2023-04-12T07:24:15;7.30;99.90
16966;DHT22;8599;47.852;12.070;2023-04-12T07:26:43;7.30;99.90
16966;DHT22;8599;47.852;12.070;2023-04-12T07:29:10;7.40;99.90
16966;DHT22;8599;47.852;12.070;2023-04-12T07:31:37;7.40;99.90
16966;DHT22;8599;47.852;12.070;2023-04-12T07:34:04;7.40;99.90
16966;DHT22;8599;47.852;12.070;2023-04-12T07:36:30;7.50;99.90
16966;DHT22;8599;47.852;12.070;2023-04-12T07:38:57;7.40;99.90
16966;DHT22;8599;47.852;12.070;2023-04-12T07:41:24;7.40;99.90
16966;DHT22;8599;47.852;12.070;2023-04-12T07:43:54;7.50;99.90
16966;DHT22;8599;47.852;12.070;2023-04-12T07:46:21;7.50;99.90
16966;DHT22;8599;47.852;12.070;2023-04-12T07:48:48;7.50;99.90
16966;DHT22;8599;47.852;12.070;2023-04-12T07:51:15;7.50;99.90
16966;DHT22;8599;47.852;12.070;2023-04-12T07:53:42;7.50;99.90
16966;DHT22;8599;47.852;12.070;2023-04-12T07:56:12;7.50;99.90
16966;DHT22;8599;47.852;12.070;2023-04-12T07:58:39;7.60;99.90
16966;DHT22;8599;47.852;12.070;2023-04-12T08:01:07;7.60;99.90
16966;DHT22;8599;47.852;12.070;2023-04-12T08:03:34;7.70;99.90
16966;DHT22;8599;47.852;12.070;2023-04-12T08:06:01;7.80;99.90
16966;DHT22;8599;47.852;12.070;2023-04-12T08:08:28;7.90;99.90
16966;DHT22;8599;47.852;12.070;2023-04-12T08:10:55;7.90;99.90
16966;DHT22;8599;47.852;12.070;2023-04-12T08:13:22;8.00;99.90
16966;DHT22;8599;47.852;12.070;2023-04-12T08:15:48;8.10;99.90
16966;DHT22;8599;47.852;12.070;2023-04-12T08:18:16;8.20;99.90
16966;DHT22;8599;47.852;12.070;2023-04-12T08:20:43;8.10;99.90
16966;DHT22;8599;47.852;12.070;2023-04-12T08:23:12;8.20;99.90
16966;DHT22;8599;47.852;12.070;2023-04-12T08:25:39;8.20;99.90
16966;DHT22;8599;47.852;12.070;2023-04-12T08:28:06;8.20;99.90
16966;DHT22;8599;47.852;12.070;2023-04-12T08:30:33;8.30;99.90
16966;DHT22;8599;47.852;12.070;2023-04-12T08:33:01;8.40;99.90
16966;DHT22;8599;47.852;12.070;2023-04-12T08:35:29;8.50;99.90
16966;DHT22;8599;47.852;12.070;2023-04-12T08:37:57;8.50;99.90
16966;DHT22;8599;47.852;12.070;2023-04-12T08:40:24;8.60;99.90
16966;DHT22;8599;47.852;12.070;2023-04-12T08:42:52;8.60;99.90
16966;DHT22;8599;47.852;12.070;2023-04-12T08:45:20;8.60;99.90
16966;DHT22;8599;47.852;12.070;2023-04-12T08:47:48;8.70;99.90
16966;DHT22;8599;47.852;12.070;2023-04-12T08:50:15;8.60;99.90
16966;DHT22;8599;47.852;12.070;2023-04-12T08:52:43;8.60;99.90
16966;DHT22;8599;47.852;12.070;2023-04-12T08:55:12;8.50;99.90
16966;DHT22;8599;47.852;12.070;2023-04-12T08:57:40;8.60;99.90
16966;DHT22;8599;47.852;12.070;2023-04-12T09:00:08;8.50;99.90
16966;DHT22;8599;47.852;12.070;2023-04-12T09:02:36;8.50;99.90
16966;DHT22;8599;47.852;12.070;2023-04-12T09:05:04;8.50;99.90
16966;DHT22;8599;47.852;12.070;2023-04-12T09:07:31;8.50;99.90
16966;DHT22;8599;47.852;12.070;2023-04-12T09:10:00;8.50;99.90
16966;DHT22;8599;47.852;12.070;2023-04-12T09:12:27;8.50;99.90
16966;DHT22;8599;47.852;12.070;2023-04-12T09:15:07;8.50;99.90
16966;DHT22;8599;47.852;12.070;2023-04-12T09:17:36;8.50;99.90
16966;DHT22;8599;47.852;12.070;2023-04-12T09:20:21;8.50;99.90
16966;DHT22;8599;47.852;12.070;2023-04-12T09:22:49;8.50;99.90
16966;DHT22;8599;47.852;12.070;2023-04-12T09:25:34;8.50;99.90
16966;DHT22;8599;47.852;12.070;2023-04-12T09:28:03;8.50;99.90
16966;DHT22;8599;47.852;12.070;2023-04-12T09:30:40;8.50;99.90
16966;DHT22;8599;47.852;12.070;2023-04-12T09:33:11;8.40;99.90
16966;DHT22;8599;47.852;12.070;2023-04-12T09:35:38;8.40;99.90
16966;DHT22;8599;47.852;12.070;2023-04-12T09:38:09;8.50;99.90
16966;DHT22;8599;47.852;12.070;2023-04-12T09:40:38;8.50;99.90
16966;DHT22;8599;47.852;12.070;2023-04-12T09:43:05;8.70;99.90
16966;DHT22;8599;47.852;12.070;2023-04-12T09:45:33;8.70;99.90
16966;DHT22;8599;47.852;12.070;2023-04-12T09:48:03;8.90;99.90
16966;DHT22;8599;47.852;12.070;2023-04-12T09:50:30;9.00;99.90
16966;DHT22;8599;47.852;12.070;2023-04-12T09:52:59;9.10;99.90
16966;DHT22;8599;47.852;12.070;2023-04-12T09:55:27;9.20;99.90
16966;DHT22;8599;47.852;12.070;2023-04-12T09:57:56;9.20;99.90
16966;DHT22;8599;47.852;12.070;2023-04-12T10:00:27;9.20;99.90
16966;DHT22;8599;47.852;12.070;2023-04-12T10:02:55;9.20;99.90
16966;DHT22;8599;47.852;12.070;2023-04-12T10:05:23;9.30;99.90
16966;DHT22;8599;47.852;12.070;2023-04-12T10:07:50;9.30;99.90
16966;DHT22;8599;47.852;12.070;2023-04-12T10:10:18;9.40;99.90
16966;DHT22;8599;47.852;12.070;2023-04-12T10:12:47;9.40;99.90
16966;DHT22;8599;47.852;12.070;2023-04-12T10:15:16;9.50;99.90
16966;DHT22;8599;47.852;12.070;2023-04-12T10:17:45;9.70;99.90
16966;DHT22;8599;47.852;12.070;2023-04-12T10:20:12;9.80;99.90
16966;DHT22;8599;47.852;12.070;2023-04-12T10:22:40;9.80;99.90
16966;DHT22;8599;47.852;12.070;2023-04-12T10:25:12;9.90;99.90
16966;DHT22;8599;47.852;12.070;2023-04-12T10:27:40;10.00;99.90
16966;DHT22;8599;47.852;12.070;2023-04-12T10:30:26;10.10;99.90
16966;DHT22;8599;47.852;12.070;2023-04-12T10:33:13;10.20;99.90
16966;DHT22;8599;47.852;12.070;2023-04-12T10:36:00;10.30;99.90
16966;DHT22;8599;47.852;12.070;2023-04-12T10:38:44;10.30;99.90
16966;DHT22;8599;47.852;12.070;2023-04-12T10:41:15;10.40;99.90
16966;DHT22;8599;47.852;12.070;2023-04-12T10:43:43;10.50;99.90
16966;DHT22;8599;47.852;12.070;2023-04-12T10:49:17;10.70;99.90
16966;DHT22;8599;47.852;12.070;2023-04-12T10:52:11;10.60;99.90
16966;DHT22;8599;47.852;12.070;2023-04-12T10:54:39;10.60;99.90
16966;DHT22;8599;47.852;12.070;2023-04-12T10:57:07;10.70;99.90
16966;DHT22;8599;47.852;12.070;2023-04-12T10:59:55;10.90;99.90
16966;DHT22;8599;47.852;12.070;2023-04-12T11:02:24;11.00;99.90
16966;DHT22;8599;47.852;12.070;2023-04-12T11:05:07;11.20;99.90
16966;DHT22;8599;47.852;12.070;2023-04-12T11:07:41;11.20;99.90
16966;DHT22;8599;47.852;12.070;2023-04-12T11:10:15;11.30;99.90
16966;DHT22;8599;47.852;12.070;2023-04-12T11:12:47;11.40;99.90
16966;DHT22;8599;47.852;12.070;2023-04-12T11:15:15;11.60;99.90
16966;DHT22;8599;47.852;12.070;2023-04-12T11:17:42;11.80;99.90
16966;DHT22;8599;47.852;12.070;2023-04-12T11:20:19;11.80;99.90
16966;DHT22;8599;47.852;12.070;2023-04-12T11:22:48;11.90;99.90
16966;DHT22;8599;47.852;12.070;2023-04-12T11:25:16;12.10;99.90
16966;DHT22;8599;47.852;12.070;2023-04-12T11:27:48;12.10;99.90
16966;DHT22;8599;47.852;12.070;2023-04-12T11:30:15;12.20;99.90
16966;DHT22;8599;47.852;12.070;2023-04-12T11:32:43;12.40;99.90
16966;DHT22;8599;47.852;12.070;2023-04-12T11:35:11;12.40;99.90
16966;DHT22;8599;47.852;12.070;2023-04-12T11:37:41;12.50;99.90
16966;DHT22;8599;47.852;12.070;2023-04-12T11:40:09;12.70;99.90
16966;DHT22;8599;47.852;12.070;2023-04-12T11:42:38;12.80;99.90
16966;DHT22;8599;47.852;12.070;2023-04-12T11:45:06;13.00;99.90
16966;DHT22;8599;47.852;12.070;2023-04-12T11:47:35;12.90;99.90
16966;DHT22;8599;47.852;12.070;2023-04-12T11:50:08;13.00;99.90
16966;DHT22;8599;47.852;12.070;2023-04-12T11:52:35;13.10;99.90
16966;DHT22;8599;47.852;12.070;2023-04-12T11:55:04;13.20;99.90
16966;DHT22;8599;47.852;12.070;2023-04-12T11:57:33;13.40;99.90
16966;DHT22;8599;47.852;12.070;2023-04-12T12:00:01;13.50;99.90
16966;DHT22;8599;47.852;12.070;2023-04-12T12:02:33;13.60;99.90
16966;DHT22;8599;47.852;12.070;2023-04-12T12:05:00;13.50;99.90
16966;DHT22;8599;47.852;12.070;2023-04-12T12:07:27;13.50;99.90
16966;DHT22;8599;47.852;12.070;2023-04-12T12:09:54;13.60;99.90
16966;DHT22;8599;47.852;12.070;2023-04-12T12:12:23;13.60;99.90
16966;DHT22;8599;47.852;12.070;2023-04-12T12:14:49;13.60;99.90
16966;DHT22;8599;47.852;12.070;2023-04-12T12:17:16;13.70;99.90
16966;DHT22;8599;47.852;12.070;2023-04-12T12:19:45;13.60;99.90
16966;DHT22;8599;47.852;12.070;2023-04-12T12:22:12;13.60;99.90
16966;DHT22;8599;47.852;12.070;2023-04-12T12:24:44;13.60;99.90
16966;DHT22;8599;47.852;12.070;2023-04-12T12:27:12;13.70;99.90
16966;DHT22;8599;47.852;12.070;2023-04-12T12:29:40;13.80;99.90
16966;DHT22;8599;47.852;12.070;2023-04-12T12:32:10;13.90;99.90
16966;DHT22;8599;47.852;12.070;2023-04-12T12:34:39;13.90;99.90
16966;DHT22;8599;47.852;12.070;2023-04-12T12:37:07;13.80;99.90
16966;DHT22;8599;47.852;12.070;2023-04-12T12:39:35;13.60;99.90
16966;DHT22;8599;47.852;12.070;2023-04-12T12:42:02;13.40;99.90
16966;DHT22;8599;47.852;12.070;2023-04-12T12:44:30;13.30;99.90
16966;DHT22;8599;47.852;12.070;2023-04-12T12:46:59;13.20;99.90
16966;DHT22;8599;47.852;12.070;2023-04-12T12:49:27;13.20;99.90
16966;DHT22;8599;47.852;12.070;2023-04-12T12:51:55;13.20;99.90
16966;DHT22;8599;47.852;12.070;2023-04-12T12:54:22;13.10;99.90
16966;DHT22;8599;47.852;12.070;2023-04-12T12:56:49;13.10;99.90
16966;DHT22;8599;47.852;12.070;2023-04-12T12:59:16;13.20;99.90
16966;DHT22;8599;47.852;12.070;2023-04-12T13:01:42;13.40;99.90
16966;DHT22;8599;47.852;12.070;2023-04-12T13:04:11;13.30;99.90
16966;DHT22;8599;47.852;12.070;2023-04-12T13:06:37;13.20;99.90
16966;DHT22;8599;47.852;12.070;2023-04-12T13:09:07;13.20;99.90
16966;DHT22;8599;47.852;12.070;2023-04-12T13:11:33;13.20;99.90
16966;DHT22;8599;47.852;12.070;2023-04-12T13:14:00;13.10;99.90
16966;DHT22;8599;47.852;12.070;2023-04-12T13:16:27;13.10;99.90
16966;DHT22;8599;47.852;12.070;2023-04-12T13:18:54;13.20;99.90
16966;DHT22;8599;47.852;12.070;2023-04-12T13:21:22;13.30;99.90
16966;DHT22;8599;47.852;12.070;2023-04-12T13:23:49;13.20;99.90
16966;DHT22;8599;47.852;12.070;2023-04-12T13:26:16;13.20;99.90
16966;DHT22;8599;47.852;12.070;2023-04-12T13:28:43;13.20;99.90
16966;DHT22;8599;47.852;12.070;2023-04-12T13:31:09;13.30;99.90
16966;DHT22;8599;47.852;12.070;2023-04-12T13:33:36;13.30;99.90
16966;DHT22;8599;47.852;12.070;2023-04-12T13:36:03;13.30;99.90
16966;DHT22;8599;47.852;12.070;2023-04-12T13:38:32;13.40;99.90
16966;DHT22;8599;47.852;12.070;2023-04-12T13:40:59;13.60;99.90
16966;DHT22;8599;47.852;12.070;2023-04-12T13:43:25;13.70;99.90
16966;DHT22;8599;47.852;12.070;2023-04-12T13:45:52;13.70;99.90
16966;DHT22;8599;47.852;12.070;2023-04-12T13:48:19;13.80;99.90
16966;DHT22;8599;47.852;12.070;2023-04-12T13:50:46;13.90;99.90
16966;DHT22;8599;47.852;12.070;2023-04-12T13:53:12;13.90;99.90
16966;DHT22;8599;47.852;12.070;2023-04-12T13:55:41;13.90;99.90
16966;DHT22;8599;47.852;12.070;2023-04-12T13:58:07;13.90;99.90
16966;DHT22;8599;47.852;12.070;2023-04-12T14:00:34;14.00;99.90
16966;DHT22;8599;47.852;12.070;2023-04-12T14:03:01;14.10;99.90
16966;DHT22;8599;47.852;12.070;2023-04-12T14:05:28;14.30;99.90
16966;DHT22;8599;47.852;12.070;2023-04-12T14:07:58;14.40;99.90
16966;DHT22;8599;47.852;12.070;2023-04-12T14:10:25;14.30;99.90
16966;DHT22;8599;47.852;12.070;2023-04-12T14:12:53;14.20;99.90
16966;DHT22;8599;47.852;12.070;2023-04-12T14:15:20;14.10;99.90
16966;DHT22;8599;47.852;12.070;2023-04-12T14:17:46;14.10;99.90
16966;DHT22;8599;47.852;12.070;2023-04-12T14:20:13;14.00;99.90
16966;DHT22;8599;47.852;12.070;2023-04-12T14:22:43;14.00;99.90
16966;DHT22;8599;47.852;12.070;2023-04-12T14:25:10;14.00;99.90
16966;DHT22;8599;47.852;12.070;2023-04-12T14:27:37;14.10;99.90
16966;DHT22;8599;47.852;12.070;2023-04-12T14:30:06;14.20;99.90
16966;DHT22;8599;47.852;12.070;2023-04-12T14:32:33;14.50;99.90
16966;DHT22;8599;47.852;12.070;2023-04-12T14:35:00;15.10;99.90
16966;DHT22;8599;47.852;12.070;2023-04-12T14:37:28;15.80;99.90
16966;DHT22;8599;47.852;12.070;2023-04-12T14:39:55;16.30;99.90
16966;DHT22;8599;47.852;12.070;2023-04-12T14:42:22;16.70;99.90
16966;DHT22;8599;47.852;12.070;2023-04-12T14:44:48;17.00;99.90
16966;DHT22;8599;47.852;12.070;2023-04-12T14:47:17;17.40;99.90
16966;DHT22;8599;47.852;12.070;2023-04-12T14:49:44;17.50;99.90
16966;DHT22;8599;47.852;12.070;2023-04-12T14:52:11;17.60;99.90
16966;DHT22;8599;47.852;12.070;2023-04-12T14:54:37;17.60;99.90
16966;DHT22;8599;47.852;12.070;2023-04-12T14:57:04;17.60;99.90
16966;DHT22;8599;47.852;12.070;2023-04-12T14:59:31;17.40;99.90
16966;DHT22;8599;47.852;12.070;2023-04-12T15:01:58;17.40;99.90
16966;DHT22;8599;47.852;12.070;2023-04-12T15:04:26;17.30;99.90
16966;DHT22;8599;47.852;12.070;2023-04-12T15:06:55;17.50;99.90
16966;DHT22;8599;47.852;12.070;2023-04-12T15:09:22;18.00;99.90
16966;DHT22;8599;47.852;12.070;2023-04-12T15:11:49;18.00;99.90
16966;DHT22;8599;47.852;12.070;2023-04-12T15:14:21;17.70;99.90
16966;DHT22;8599;47.852;12.070;2023-04-12T15:16:48;17.10;99.90
16966;DHT22;8599;47.852;12.070;2023-04-12T15:19:15;16.80;99.90
16966;DHT22;8599;47.852;12.070;2023-04-12T15:21:45;16.60;99.90
16966;DHT22;8599;47.852;12.070;2023-04-12T15:24:15;16.50;99.90
16966;DHT22;8599;47.852;12.070;2023-04-12T15:26:42;16.90;99.90
16966;DHT22;8599;47.852;12.070;2023-04-12T15:29:09;17.10;99.90
16966;DHT22;8599;47.852;12.070;2023-04-12T15:31:36;17.20;99.90
16966;DHT22;8599;47.852;12.070;2023-04-12T15:34:03;17.30;99.90
16966;DHT22;8599;47.852;12.070;2023-04-12T15:36:29;17.50;99.90
16966;DHT22;8599;47.852;12.070;2023-04-12T15:39:00;17.50;99.90
16966;DHT22;8599;47.852;12.070;2023-04-12T15:41:32;17.50;99.90
16966;DHT22;8599;47.852;12.070;2023-04-12T15:43:59;17.30;99.90
16966;DHT22;8599;47.852;12.070;2023-04-12T15:46:26;17.10;99.90
16966;DHT22;8599;47.852;12.070;2023-04-12T15:48:53;17.00;99.90
16966;DHT22;8599;47.852;12.070;2023-04-12T15:51:19;16.80;99.90
16966;DHT22;8599;47.852;12.070;2023-04-12T15:53:48;16.40;99.90